Time;durP1;ratioP1;P1;durP2;ratioP2;P2;SDS_P1;SDS_P2;PMS_P1;PMS_P2;Temp;Humidity;BMP_temperature;BMP_pressure;BME280_temperature;BME280_humidity;BME280_pressure;Samples;Min_cycle;Max_cycle;Signal;HPM_P1;HPM_P2
2022/04/05 00:02:36;;;;;;;10.30;7.53;;;4.10;99.90;;;;;;4995228;28;20327;-59
2022/04/05 00:05:25;;;;;;;15.27;8.73;;;4.10;99.90;;;;;;4996998;28;20364;-59
2022/04/05 00:08:15;;;;;;;13.27;8.20;;;4.10;99.90;;;;;;4994220;28;20338;-59
2022/04/05 00:11:05;;;;;;;11.70;8.40;;;4.00;99.90;;;;;;4986756;28;20847;-59
2022/04/05 00:13:53;;;;;;;8.43;6.03;;;4.00;99.90;;;;;;4984385;28;20303;-60
2022/04/05 00:16:42;;;;;;;13.13;9.33;;;3.90;99.90;;;;;;4995813;28;20227;-59
2022/04/05 00:19:31;;;;;;;12.23;7.80;;;4.00;99.90;;;;;;4994251;28;20246;-59
2022/04/05 00:22:20;;;;;;;12.70;9.80;;;3.90;99.90;;;;;;4994627;28;20242;-59
2022/04/05 00:25:09;;;;;;;12.53;9.23;;;4.00;99.90;;;;;;4993245;28;20230;-59
2022/04/05 00:27:59;;;;;;;11.90;9.90;;;4.00;99.90;;;;;;4995568;28;20700;-58
2022/04/05 00:30:47;;;;;;;11.40;8.57;;;4.00;99.90;;;;;;4980212;28;20313;-58
2022/04/05 00:33:36;;;;;;;12.87;10.13;;;3.90;99.90;;;;;;4999412;28;20670;-59
2022/04/05 00:36:25;;;;;;;9.17;7.43;;;4.00;99.90;;;;;;4998455;28;20715;-59
2022/04/05 00:39:13;;;;;;;12.97;10.30;;;4.00;99.90;;;;;;4998500;28;20242;-58
2022/04/05 00:42:02;;;;;;;11.17;8.50;;;4.00;99.90;;;;;;4995559;28;20211;-59
2022/04/05 00:44:55;;;;;;;8.17;5.93;;;4.00;99.90;;;;;;5007053;28;20217;-58
2022/04/05 00:47:48;;;;;;;10.77;6.47;;;4.00;99.90;;;;;;4983729;28;20229;-60
2022/04/05 00:50:39;;;;;;;11.70;6.97;;;4.00;99.90;;;;;;4993963;28;20219;-60
2022/04/05 00:53:30;;;;;;;11.40;7.93;;;4.00;99.90;;;;;;4993189;28;20249;-59
2022/04/05 00:56:20;;;;;;;7.10;4.83;;;4.00;99.90;;;;;;4989286;28;20240;-59
2022/04/05 00:59:11;;;;;;;11.80;10.47;;;3.90;99.90;;;;;;4981254;28;20692;-59
2022/04/05 01:02:02;;;;;;;10.70;8.40;;;3.80;99.90;;;;;;4995833;28;20224;-59
2022/04/05 01:04:51;;;;;;;15.30;8.93;;;3.80;99.90;;;;;;4992305;28;20230;-59
2022/04/05 01:07:42;;;;;;;12.83;10.13;;;3.80;99.90;;;;;;4995926;28;20253;-59
2022/04/05 01:10:31;;;;;;;9.03;6.40;;;3.80;99.90;;;;;;4974123;28;20223;-58
2022/04/05 01:13:20;;;;;;;13.47;10.80;;;3.70;99.90;;;;;;4994926;28;20235;-58
2022/04/05 01:16:10;;;;;;;12.07;7.83;;;3.70;99.90;;;;;;4983447;28;20680;-60
2022/04/05 01:19:00;;;;;;;12.00;8.93;;;3.70;99.90;;;;;;4993891;28;20226;-62
2022/04/05 01:21:49;;;;;;;9.83;7.60;;;3.70;99.90;;;;;;4998333;28;20259;-60
2022/04/05 01:24:39;;;;;;;12.87;9.87;;;3.70;99.90;;;;;;4993516;28;20254;-60
2022/04/05 01:27:29;;;;;;;13.73;8.70;;;3.70;99.90;;;;;;4992766;28;20218;-59
2022/04/05 01:30:17;;;;;;;8.73;6.87;;;3.70;99.90;;;;;;4979366;28;20235;-58
2022/04/05 01:33:07;;;;;;;10.70;6.40;;;3.70;99.90;;;;;;4992700;28;20628;-59
2022/04/05 01:35:55;;;;;;;11.27;8.73;;;3.70;99.90;;;;;;4992934;28;20872;-59
2022/04/05 01:38:43;;;;;;;9.80;7.80;;;3.60;99.90;;;;;;4981145;28;20222;-58
2022/04/05 01:41:33;;;;;;;12.60;9.97;;;3.60;99.90;;;;;;4991328;28;20218;-60
2022/04/05 01:44:26;;;;;;;12.73;9.50;;;3.60;99.90;;;;;;5006247;28;20244;-59
2022/04/05 01:47:16;;;;;;;9.63;8.67;;;3.60;99.90;;;;;;4980431;28;20253;-60
2022/04/05 01:50:05;;;;;;;10.33;8.13;;;3.60;99.90;;;;;;4995205;28;20234;-60
2022/04/05 01:52:54;;;;;;;10.50;8.53;;;3.60;99.90;;;;;;4996426;28;20230;-60
2022/04/05 01:55:43;;;;;;;11.97;9.60;;;3.70;99.90;;;;;;4993697;28;20283;-60
2022/04/05 01:58:35;;;;;;;14.33;11.77;;;3.70;99.90;;;;;;4995719;28;20330;-59
2022/04/05 02:01:24;;;;;;;7.73;6.30;;;3.70;99.90;;;;;;4978771;28;20228;-59
2022/04/05 02:04:14;;;;;;;12.33;10.97;;;3.70;99.90;;;;;;4989325;28;20239;-59
2022/04/05 02:07:09;;;;;;;14.20;12.47;;;3.80;99.90;;;;;;4994282;28;20372;-60
2022/04/05 02:09:58;;;;;;;15.77;13.20;;;3.80;99.90;;;;;;4990502;28;20718;-59
2022/04/05 02:12:46;;;;;;;15.27;11.93;;;3.80;99.90;;;;;;4979894;28;20275;-60
2022/04/05 02:15:44;;;;;;;15.00;12.30;;;3.80;99.90;;;;;;4979254;28;20257;-60
2022/04/05 02:18:35;;;;;;;13.90;11.97;;;3.80;99.90;;;;;;4980813;28;20223;-61
2022/04/05 02:21:25;;;;;;;15.43;13.70;;;3.80;99.90;;;;;;4982905;28;20223;-60
2022/04/05 02:24:14;;;;;;;14.63;11.50;;;3.80;99.90;;;;;;4974117;28;20305;-60
2022/04/05 02:27:04;;;;;;;15.10;10.63;;;3.80;99.90;;;;;;4976734;28;20652;-60
2022/04/05 02:29:56;;;;;;;15.53;13.73;;;3.80;99.90;;;;;;4976652;28;20601;-60
2022/04/05 02:32:46;;;;;;;15.57;13.87;;;3.80;99.90;;;;;;4991332;28;20273;-60
2022/04/05 02:35:37;;;;;;;14.20;10.47;;;3.80;99.90;;;;;;4995064;28;20347;-61
2022/04/05 02:38:27;;;;;;;15.30;12.20;;;3.80;99.90;;;;;;4977662;28;20236;-59
2022/04/05 02:41:17;;;;;;;14.97;10.03;;;3.80;99.90;;;;;;4978092;28;20265;-59
2022/04/05 02:44:07;;;;;;;14.00;11.43;;;3.90;99.90;;;;;;4973768;28;20220;-60
2022/04/05 02:46:58;;;;;;;16.63;14.07;;;3.90;99.90;;;;;;4972984;28;20222;-58
2022/04/05 02:49:55;;;;;;;16.57;13.27;;;3.90;99.90;;;;;;4983239;28;20404;-59
2022/04/05 02:52:49;;;;;;;15.93;13.27;;;4.00;99.90;;;;;;4979767;28;20622;-59
2022/04/05 02:55:39;;;;;;;14.97;11.87;;;4.00;99.90;;;;;;4990110;28;20233;-60
2022/04/05 02:58:30;;;;;;;16.20;12.77;;;4.00;99.90;;;;;;4983234;28;20218;-60
2022/04/05 03:01:18;;;;;;;18.33;14.47;;;4.00;99.90;;;;;;4983417;28;20945;-58
2022/04/05 03:04:08;;;;;;;16.33;12.43;;;4.10;99.90;;;;;;4993609;28;20230;-59
2022/04/05 03:06:59;;;;;;;17.50;13.80;;;4.10;99.90;;;;;;4994173;28;20231;-60
2022/04/05 03:09:49;;;;;;;17.27;14.47;;;4.10;99.90;;;;;;4987942;28;20225;-59
2022/04/05 03:12:40;;;;;;;15.47;13.33;;;4.20;99.90;;;;;;4983159;28;20219;-60
2022/04/05 03:15:34;;;;;;;12.77;8.97;;;4.20;99.90;;;;;;4981493;28;20341;-59
2022/04/05 03:18:25;;;;;;;16.77;14.33;;;4.30;99.90;;;;;;4993418;28;20333;-60
2022/04/05 03:21:14;;;;;;;16.13;13.43;;;4.30;99.90;;;;;;4982178;28;20317;-60
2022/04/05 03:24:06;;;;;;;15.73;13.67;;;4.30;99.90;;;;;;4996727;28;20229;-60
2022/04/05 03:26:54;;;;;;;15.07;12.10;;;4.40;99.90;;;;;;4975490;28;21099;-60
2022/04/05 03:29:47;;;;;;;16.43;12.37;;;4.40;99.90;;;;;;4986428;28;20233;-60
2022/04/05 03:32:36;;;;;;;17.53;14.37;;;4.50;99.90;;;;;;4983344;28;20378;-60
2022/04/05 03:35:25;;;;;;;17.67;14.87;;;4.50;99.90;;;;;;4980298;28;20225;-59
2022/04/05 03:38:15;;;;;;;18.03;13.83;;;4.50;99.90;;;;;;4980351;28;20230;-60
2022/04/05 03:41:06;;;;;;;18.07;14.43;;;4.50;99.90;;;;;;4996594;28;20359;-60
2022/04/05 03:44:00;;;;;;;18.50;15.27;;;4.60;99.90;;;;;;4979134;28;20303;-60
2022/04/05 03:46:56;;;;;;;19.53;14.67;;;4.60;99.90;;;;;;4978726;28;20324;-59
2022/04/05 03:49:48;;;;;;;17.77;13.57;;;4.60;99.90;;;;;;4981858;28;20248;-60
2022/04/05 03:52:37;;;;;;;19.20;16.40;;;4.60;99.90;;;;;;4997731;28;20299;-58
2022/04/05 03:55:27;;;;;;;18.60;15.43;;;4.60;99.90;;;;;;4983366;28;20586;-59
2022/04/05 03:58:17;;;;;;;18.70;13.53;;;4.70;99.90;;;;;;4970305;28;20325;-58
2022/04/05 04:01:07;;;;;;;17.67;14.93;;;4.70;99.90;;;;;;4971300;28;20228;-59
2022/04/05 04:03:56;;;;;;;19.30;16.03;;;4.70;99.90;;;;;;4985049;28;20224;-59
2022/04/05 04:06:46;;;;;;;16.97;13.70;;;4.70;99.90;;;;;;4983740;28;20229;-59
2022/04/05 04:09:35;;;;;;;17.50;13.00;;;4.80;99.90;;;;;;4981862;28;20323;-61
2022/04/05 04:12:28;;;;;;;20.00;15.63;;;4.80;99.90;;;;;;4984149;28;20237;-60
2022/04/05 04:15:19;;;;;;;17.73;15.20;;;4.90;99.90;;;;;;4983344;28;20229;-60
2022/04/05 04:18:09;;;;;;;21.03;15.73;;;4.90;99.90;;;;;;4996032;28;20239;-60
2022/04/05 04:21:00;;;;;;;20.00;15.90;;;4.90;99.90;;;;;;4982006;28;20722;-60
2022/04/05 04:23:49;;;;;;;18.00;15.67;;;4.90;99.90;;;;;;4983779;28;20741;-60
2022/04/05 04:26:38;;;;;;;17.03;15.23;;;4.90;99.90;;;;;;4980898;28;20222;-60
2022/04/05 04:29:27;;;;;;;17.17;14.40;;;4.90;99.90;;;;;;4997116;28;20780;-59
2022/04/05 04:32:17;;;;;;;18.57;14.17;;;4.90;99.90;;;;;;4983792;28;20225;-60
2022/04/05 04:35:07;;;;;;;19.80;15.07;;;5.00;99.90;;;;;;4998686;28;20226;-60
2022/04/05 04:37:56;;;;;;;19.97;16.97;;;5.00;99.90;;;;;;4999218;28;20229;-58
2022/04/05 04:40:48;;;;;;;19.73;16.30;;;5.00;99.90;;;;;;4970635;28;20236;-60
2022/04/05 04:43:36;;;;;;;19.60;15.47;;;5.10;99.90;;;;;;4998355;28;20221;-60
2022/04/05 04:46:25;;;;;;;19.00;16.33;;;5.10;99.90;;;;;;4995049;28;20699;-60
2022/04/05 04:49:15;;;;;;;17.40;15.43;;;5.10;99.90;;;;;;4985415;28;20218;-60
2022/04/05 04:52:05;;;;;;;20.87;15.90;;;5.20;99.90;;;;;;4995398;28;20267;-63
2022/04/05 04:54:54;;;;;;;17.93;15.60;;;5.20;99.90;;;;;;4984162;28;20233;-58
2022/04/05 04:57:43;;;;;;;18.43;15.83;;;5.30;99.90;;;;;;4999941;28;20225;-59
2022/04/05 05:00:31;;;;;;;17.33;15.43;;;5.30;99.90;;;;;;4993939;28;20268;-58
2022/04/05 05:03:20;;;;;;;19.17;15.10;;;5.40;99.90;;;;;;4995721;28;21135;-58
2022/04/05 05:06:11;;;;;;;18.60;15.57;;;5.40;99.90;;;;;;4996192;28;20222;-59
2022/04/05 05:08:59;;;;;;;19.87;14.70;;;5.50;99.90;;;;;;4997506;28;20731;-59
2022/04/05 05:11:48;;;;;;;18.63;16.60;;;5.50;99.90;;;;;;4997984;28;20902;-59
2022/04/05 05:14:37;;;;;;;18.70;16.63;;;5.50;99.90;;;;;;4995503;28;20236;-59
2022/04/05 05:17:26;;;;;;;21.07;16.63;;;5.50;99.90;;;;;;4994848;28;20519;-59
2022/04/05 05:20:16;;;;;;;21.23;17.37;;;5.50;99.90;;;;;;4985556;28;20241;-58
2022/04/05 05:23:06;;;;;;;21.27;17.77;;;5.50;99.90;;;;;;4990220;28;20237;-61
2022/04/05 05:25:55;;;;;;;21.27;16.60;;;5.60;99.90;;;;;;4995042;28;20222;-60
2022/04/05 05:28:43;;;;;;;20.33;16.50;;;5.60;99.90;;;;;;4983701;28;20222;-59
2022/04/05 05:31:32;;;;;;;19.70;16.17;;;5.80;99.90;;;;;;4980845;28;20726;-61
2022/04/05 05:34:23;;;;;;;17.87;14.57;;;6.00;99.90;;;;;;4981588;28;20242;-62
2022/04/05 05:37:11;;;;;;;17.53;14.50;;;6.00;99.90;;;;;;4986860;28;20569;-60
2022/04/05 05:40:01;;;;;;;18.43;14.87;;;6.00;99.90;;;;;;4995146;28;20347;-59
2022/04/05 05:42:51;;;;;;;21.27;15.77;;;6.00;99.90;;;;;;4993368;28;20222;-61
2022/04/05 05:45:40;;;;;;;17.17;14.90;;;6.00;99.90;;;;;;5001747;28;20365;-60
2022/04/05 05:48:29;;;;;;;16.87;13.93;;;5.80;99.90;;;;;;4996684;28;20229;-60
2022/04/05 05:51:17;;;;;;;15.00;12.73;;;5.70;99.90;;;;;;4994925;28;20230;-59
2022/04/05 05:54:07;;;;;;;15.53;12.70;;;5.70;99.90;;;;;;4997175;28;20675;-61
2022/04/05 05:56:57;;;;;;;16.43;12.37;;;5.60;99.90;;;;;;4981155;28;20230;-59
2022/04/05 05:59:46;;;;;;;16.20;12.73;;;5.60;99.90;;;;;;4994564;28;20277;-58
2022/04/05 06:02:39;;;;;;;16.67;12.20;;;5.50;99.90;;;;;;4992806;28;20236;-60
2022/04/05 06:05:28;;;;;;;14.43;11.20;;;5.40;99.90;;;;;;4994052;28;20225;-59
2022/04/05 06:08:17;;;;;;;13.03;10.83;;;5.40;99.90;;;;;;5000577;28;20230;-58
2022/04/05 06:11:07;;;;;;;12.67;9.93;;;5.40;99.90;;;;;;4998828;28;20221;-60
2022/04/05 06:13:57;;;;;;;12.63;10.20;;;5.30;99.90;;;;;;4982652;28;20698;-60
2022/04/05 06:16:46;;;;;;;12.23;9.77;;;5.40;99.90;;;;;;4996322;28;20229;-58
2022/04/05 06:19:39;;;;;;;10.27;9.17;;;5.40;99.90;;;;;;4996203;28;20779;-60
2022/04/05 06:22:27;;;;;;;11.73;9.00;;;5.50;99.90;;;;;;4997428;28;20719;-62
2022/04/05 06:25:21;;;;;;;11.27;8.23;;;5.40;99.90;;;;;;5000574;28;20694;-59
2022/04/05 06:28:10;;;;;;;11.77;8.33;;;5.10;99.90;;;;;;4979891;28;20706;-60
2022/04/05 06:31:04;;;;;;;11.87;8.87;;;5.00;99.90;;;;;;4997125;28;20308;-61
2022/04/05 06:33:53;;;;;;;12.70;9.60;;;4.90;99.90;;;;;;4996749;28;20240;-60
2022/04/05 09:31:44;;;;;;;6.97;2.77;;;9.30;99.90;;;;;;5034017;27;20605;-58
2022/04/05 09:34:33;;;;;;;9.03;2.57;;;9.40;99.90;;;;;;5016871;28;20228;-62
2022/04/05 09:37:26;;;;;;;9.03;2.60;;;9.30;99.90;;;;;;5014773;28;20714;-57
2022/04/05 09:40:17;;;;;;;4.00;2.00;;;9.30;99.90;;;;;;5029066;28;20774;-59
2022/04/05 09:43:08;;;;;;;5.10;2.40;;;9.40;99.90;;;;;;5046362;28;20227;-58
2022/04/05 09:46:00;;;;;;;5.80;2.50;;;9.10;99.90;;;;;;5024972;28;20307;-59
2022/04/05 09:49:04;;;;;;;5.97;2.63;;;9.20;99.90;;;;;;5015911;28;20228;-58
2022/04/05 09:51:53;;;;;;;8.33;3.40;;;9.00;99.90;;;;;;5020121;28;20235;-59
2022/04/05 09:54:41;;;;;;;5.30;2.57;;;9.10;99.90;;;;;;5038950;28;20218;-59
2022/04/05 09:57:31;;;;;;;6.50;2.40;;;9.10;99.90;;;;;;5020698;28;20227;-58
2022/04/05 10:00:21;;;;;;;5.87;2.30;;;9.30;99.90;;;;;;5059959;28;20231;-60
2022/04/05 10:03:10;;;;;;;5.30;2.00;;;9.30;99.90;;;;;;5058676;28;20231;-58
2022/04/05 10:06:02;;;;;;;7.70;2.30;;;9.40;99.90;;;;;;5058440;28;20294;-61
2022/04/05 10:08:50;;;;;;;6.73;2.10;;;9.40;99.90;;;;;;5038399;28;20217;-60
2022/04/05 10:11:41;;;;;;;6.53;2.53;;;9.20;99.90;;;;;;5035704;28;20232;-61
2022/04/05 10:14:29;;;;;;;5.00;2.13;;;9.20;99.90;;;;;;5036808;28;20256;-61
2022/04/05 10:17:20;;;;;;;6.33;2.37;;;9.30;99.60;;;;;;5046912;28;20280;-60
2022/04/05 10:20:11;;;;;;;6.30;2.20;;;9.40;99.90;;;;;;5029640;28;20239;-59
2022/04/05 10:23:03;;;;;;;6.20;2.73;;;9.20;99.90;;;;;;5031919;28;20236;-61
2022/04/05 10:25:56;;;;;;;9.97;3.00;;;9.50;99.90;;;;;;5040666;28;20872;-58
2022/04/05 10:28:52;;;;;;;7.28;2.33;;;9.70;99.90;;;;;;5047970;28;20228;-58
2022/04/05 10:31:48;;;;;;;7.75;2.30;;;9.90;99.30;;;;;;5053282;28;20223;-61
2022/04/05 10:34:44;;;;;;;9.32;2.50;;;9.70;99.90;;;;;;5057484;28;20291;-59
2022/04/05 10:37:35;;;;;;;5.75;2.40;;;9.60;99.80;;;;;;5057919;28;20224;-61
2022/04/05 10:40:25;;;;;;;9.68;2.20;;;9.60;99.90;;;;;;5059251;28;20318;-60
2022/04/05 10:43:18;;;;;;;5.57;2.50;;;9.90;99.90;;;;;;5026068;28;20237;-59
2022/04/05 10:46:08;;;;;;;5.80;2.40;;;10.10;99.90;;;;;;5045577;28;20229;-59
2022/04/05 10:48:59;;;;;;;10.52;2.25;;;10.20;97.30;;;;;;5033586;28;20266;-59
2022/04/05 10:52:07;;;;;;;7.95;2.45;;;10.10;95.80;;;;;;5041762;28;20399;-60
2022/04/05 10:55:11;;;;;;;8.27;2.10;;;9.90;96.90;;;;;;5044431;28;20228;-61
2022/04/05 10:58:10;;;;;;;9.23;2.20;;;9.70;97.40;;;;;;5055953;28;20279;-61
2022/04/05 11:01:13;;;;;;;6.20;2.33;;;9.80;97.90;;;;;;5028529;28;20232;-61
2022/04/05 11:04:29;;;;;;;4.43;1.98;;;10.00;96.60;;;;;;5016537;28;20240;-63
2022/04/05 11:07:17;;;;;;;5.72;2.03;;;9.90;94.20;;;;;;5023470;28;20348;-61
2022/04/05 11:10:07;;;;;;;6.32;1.85;;;9.90;95.60;;;;;;5013419;28;20233;-58
2022/04/05 11:13:03;;;;;;;5.65;2.47;;;9.90;95.80;;;;;;5019997;28;20749;-58
2022/04/05 11:15:56;;;;;;;7.75;1.70;;;9.80;94.30;;;;;;5019337;28;20623;-59
2022/04/05 11:18:46;;;;;;;4.60;1.90;;;9.80;92.20;;;;;;5019785;28;20758;-60
2022/04/05 11:21:54;;;;;;;5.72;2.17;;;10.00;92.40;;;;;;5029797;28;20890;-61
2022/04/05 11:24:52;;;;;;;6.28;2.15;;;9.80;91.20;;;;;;5026682;28;20746;-64
2022/04/05 11:27:48;;;;;;;6.95;2.00;;;10.00;90.60;;;;;;5023791;28;20730;-60
2022/04/05 11:31:02;;;;;;;8.13;1.92;;;9.90;91.30;;;;;;5017635;28;20234;-61
2022/04/05 11:33:55;;;;;;;8.50;2.43;;;9.70;90.10;;;;;;5018491;28;20338;-59
2022/04/05 11:36:44;;;;;;;8.77;1.90;;;9.70;93.20;;;;;;5019962;28;20220;-60
2022/04/05 11:39:40;;;;;;;6.60;2.00;;;9.80;91.80;;;;;;5036587;28;20228;-60
2022/04/05 11:42:34;;;;;;;5.65;1.95;;;10.00;92.00;;;;;;5031387;28;20309;-60
2022/04/05 11:45:23;;;;;;;7.43;1.73;;;10.00;92.10;;;;;;5034312;28;20315;-58
2022/04/05 11:48:16;;;;;;;5.47;2.00;;;9.90;91.30;;;;;;5042457;28;20234;-60
2022/04/05 11:51:09;;;;;;;8.27;1.92;;;10.00;90.60;;;;;;5041448;28;20270;-61
2022/04/05 11:54:05;;;;;;;6.75;2.05;;;10.10;90.40;;;;;;5040840;28;20221;-61
2022/04/05 11:56:54;;;;;;;9.70;2.15;;;9.90;90.70;;;;;;5037337;28;20228;-60
2022/04/05 11:59:43;;;;;;;10.82;2.65;;;9.70;90.30;;;;;;5043392;28;20322;-60
2022/04/05 12:02:32;;;;;;;8.85;2.10;;;9.90;90.30;;;;;;5048898;28;20234;-59
2022/04/05 12:05:22;;;;;;;7.10;2.38;;;9.80;90.40;;;;;;5035709;28;20560;-60
2022/04/05 12:08:12;;;;;;;7.30;2.27;;;10.00;90.70;;;;;;5017959;28;20801;-62
2022/04/05 12:11:00;;;;;;;14.52;2.40;;;10.30;88.90;;;;;;5020197;28;20236;-59
2022/04/05 12:13:55;;;;;;;9.88;2.15;;;10.00;90.00;;;;;;5034095;28;20213;-58
2022/04/05 12:16:48;;;;;;;11.25;2.30;;;10.10;90.40;;;;;;5042836;28;20235;-57
2022/04/05 12:19:39;;;;;;;6.75;2.72;;;10.30;89.80;;;;;;5042568;28;20225;-59
2022/04/05 12:22:34;;;;;;;6.82;2.45;;;10.30;91.00;;;;;;5043363;28;20220;-60
2022/04/05 12:25:23;;;;;;;6.28;2.28;;;10.30;87.10;;;;;;5023594;28;20682;-66
2022/04/05 12:28:14;;;;;;;6.45;2.20;;;10.30;86.30;;;;;;5025162;28;20221;-60
2022/04/05 13:16:10;;;;;;;11.60;3.17;;;10.10;85.60;;;;;;5037300;28;20356;-61
2022/04/05 13:19:13;;;;;;;8.38;2.67;;;10.00;85.70;;;;;;5045455;28;20221;-60
2022/04/05 13:22:02;;;;;;;9.73;2.28;;;9.90;84.60;;;;;;5041030;28;20228;-60
2022/04/05 13:24:59;;;;;;;11.70;2.23;;;10.20;85.60;;;;;;5044865;28;20227;-59
2022/04/05 13:27:59;;;;;;;8.35;2.20;;;10.20;84.90;;;;;;5048132;28;20217;-59
2022/04/05 13:30:48;;;;;;;6.85;1.85;;;10.20;84.60;;;;;;5044185;28;20297;-59
2022/04/05 13:33:39;;;;;;;7.38;2.63;;;10.10;84.50;;;;;;5037122;28;20246;-59
2022/04/05 13:36:28;;;;;;;12.75;2.20;;;10.20;83.60;;;;;;5047456;28;20300;-60
2022/04/05 13:39:17;;;;;;;11.15;2.42;;;10.20;82.60;;;;;;5045710;28;20235;-60
2022/04/05 13:42:08;;;;;;;7.47;2.55;;;10.20;82.40;;;;;;5043377;28;20220;-61
2022/04/05 13:44:57;;;;;;;9.07;2.30;;;10.30;84.70;;;;;;5051106;28;20711;-60
2022/04/05 13:47:45;;;;;;;11.65;2.38;;;10.20;81.80;;;;;;5048280;28;20353;-59
2022/04/05 13:50:39;;;;;;;9.48;2.05;;;10.10;81.80;;;;;;5046778;28;21024;-60
2022/04/05 13:53:28;;;;;;;12.13;2.15;;;10.00;82.50;;;;;;5048979;28;20229;-61
2022/04/05 13:56:16;;;;;;;12.43;2.22;;;9.90;83.30;;;;;;5045616;28;20840;-62
2022/04/05 13:59:06;;;;;;;8.82;2.22;;;9.90;82.80;;;;;;5044160;28;20239;-61
2022/04/05 14:01:55;;;;;;;11.63;2.40;;;10.00;83.50;;;;;;5042850;28;20348;-62
2022/04/05 14:04:43;;;;;;;13.05;2.75;;;10.00;81.10;;;;;;5041821;28;20386;-66
2022/04/05 14:07:37;;;;;;;10.82;2.58;;;9.90;82.20;;;;;;5046568;28;21230;-61
2022/04/05 14:10:25;;;;;;;10.95;2.30;;;9.80;82.30;;;;;;5039930;28;20315;-62
2022/04/05 14:13:34;;;;;;;9.52;2.20;;;9.80;80.30;;;;;;5044715;28;20774;-63
2022/04/05 14:16:24;;;;;;;11.60;2.00;;;9.70;80.60;;;;;;5042788;28;20915;-65
2022/04/05 14:19:13;;;;;;;11.55;2.30;;;9.80;78.50;;;;;;5043016;28;20318;-63
2022/04/05 14:22:01;;;;;;;9.90;2.45;;;9.80;78.90;;;;;;5045545;28;21136;-64
2022/04/05 14:24:51;;;;;;;13.35;2.75;;;9.70;77.80;;;;;;5047391;28;20822;-66
2022/04/05 14:27:41;;;;;;;8.85;2.05;;;9.70;77.50;;;;;;5034246;28;20343;-66
2022/04/05 14:30:29;;;;;;;11.57;2.13;;;9.70;78.00;;;;;;5032233;28;20351;-65
2022/04/05 14:33:18;;;;;;;13.95;2.47;;;9.60;78.80;;;;;;5026975;28;20714;-63
2022/04/05 14:36:09;;;;;;;11.07;2.50;;;9.70;80.50;;;;;;5033458;28;20999;-64
2022/04/05 14:38:58;;;;;;;7.67;2.27;;;9.50;80.40;;;;;;5033147;28;20560;-62
2022/04/05 14:41:49;;;;;;;10.88;2.45;;;9.40;80.50;;;;;;5030853;28;20224;-64
2022/04/05 14:44:38;;;;;;;12.53;2.07;;;9.40;82.10;;;;;;5034510;28;20224;-63
2022/04/05 14:47:26;;;;;;;11.43;2.50;;;9.40;81.20;;;;;;5036394;28;20257;-63
2022/04/05 14:50:15;;;;;;;11.07;3.07;;;9.40;82.50;;;;;;5048788;28;20225;-62
2022/04/05 14:53:26;;;;;;;10.60;2.20;;;9.30;83.60;;;;;;5056959;28;20221;-63
2022/04/05 14:56:15;;;;;;;10.30;2.33;;;9.30;83.70;;;;;;5057442;28;20353;-64
2022/04/05 14:59:05;;;;;;;11.63;2.13;;;9.20;82.20;;;;;;5055721;28;20261;-65
2022/04/05 15:01:54;;;;;;;7.57;2.20;;;9.20;81.90;;;;;;5057270;28;20701;-63
2022/04/05 15:04:43;;;;;;;7.30;2.83;;;9.20;81.30;;;;;;5042968;28;20627;-62
2022/04/05 15:07:32;;;;;;;9.43;2.60;;;9.30;80.30;;;;;;5035959;28;20225;-63
2022/04/05 15:10:20;;;;;;;11.13;2.20;;;9.30;79.50;;;;;;5031472;28;20245;-64
2022/04/05 15:13:16;;;;;;;10.37;2.43;;;9.30;81.40;;;;;;5048184;28;20397;-64
2022/04/05 15:16:06;;;;;;;10.57;2.60;;;9.40;81.10;;;;;;5051321;28;20239;-62
2022/04/05 15:18:57;;;;;;;12.70;2.83;;;9.50;81.50;;;;;;5052048;28;20861;-63
2022/04/05 15:21:45;;;;;;;14.27;2.30;;;9.40;82.10;;;;;;5057772;28;20242;-64
2022/04/05 15:24:34;;;;;;;7.27;2.37;;;9.40;81.30;;;;;;5052080;28;20219;-64
2022/04/05 15:27:23;;;;;;;10.33;2.20;;;9.40;82.20;;;;;;5051384;28;20383;-63
2022/04/05 15:30:16;;;;;;;12.95;2.40;;;9.30;79.30;;;;;;5051141;28;20227;-63
2022/04/05 15:33:08;;;;;;;11.97;2.20;;;9.30;77.80;;;;;;5048466;28;20241;-65
2022/04/05 15:35:58;;;;;;;8.23;2.30;;;9.30;77.00;;;;;;5054942;28;20245;-65
2022/04/05 15:38:46;;;;;;;7.27;2.83;;;9.20;78.50;;;;;;5053990;28;20222;-64
2022/04/05 15:41:36;;;;;;;15.70;2.93;;;9.10;78.40;;;;;;5055367;28;20229;-66
2022/04/05 15:44:25;;;;;;;11.43;2.30;;;9.10;78.00;;;;;;5054697;28;20220;-64
2022/04/05 15:47:14;;;;;;;10.20;2.20;;;9.20;79.50;;;;;;5034056;28;20454;-65
2022/04/05 15:50:05;;;;;;;6.43;2.00;;;9.20;79.00;;;;;;5049067;28;20339;-65
2022/04/05 15:52:54;;;;;;;17.10;3.70;;;9.10;80.00;;;;;;5037156;28;20648;-65
2022/04/05 15:55:43;;;;;;;8.73;2.33;;;9.10;80.80;;;;;;5041318;28;20365;-65
2022/04/05 15:58:32;;;;;;;13.53;2.80;;;9.10;80.30;;;;;;5054817;28;20224;-66
2022/04/05 16:01:20;;;;;;;15.70;2.53;;;9.10;80.30;;;;;;5032187;28;20234;-63
2022/04/05 16:04:09;;;;;;;15.07;2.77;;;9.20;80.80;;;;;;5043553;28;20222;-64
2022/04/05 16:07:04;;;;;;;17.67;3.27;;;9.00;79.30;;;;;;5053420;28;20721;-61
2022/04/05 16:09:53;;;;;;;21.27;3.20;;;9.00;80.70;;;;;;5055132;28;20238;-62
2022/04/05 16:12:42;;;;;;;16.93;2.80;;;8.90;80.90;;;;;;5045591;28;20313;-62
2022/04/05 16:15:32;;;;;;;14.10;2.93;;;9.00;80.60;;;;;;5053958;28;20248;-63
2022/04/05 16:18:21;;;;;;;11.67;2.73;;;8.90;81.40;;;;;;5055420;28;20236;-64
2022/04/05 16:21:12;;;;;;;8.77;2.30;;;9.00;80.00;;;;;;5055327;28;20229;-61
2022/04/05 16:24:02;;;;;;;16.23;3.30;;;9.00;81.00;;;;;;5053415;28;20234;-62
2022/04/05 16:26:51;;;;;;;12.57;3.40;;;9.00;79.90;;;;;;5041761;28;20580;-63
2022/04/05 16:29:40;;;;;;;13.27;2.37;;;8.90;80.80;;;;;;5042768;28;20226;-64
2022/04/05 16:32:28;;;;;;;12.07;3.10;;;8.90;80.40;;;;;;5055098;28;20238;-64
2022/04/05 16:35:17;;;;;;;10.03;2.47;;;8.80;80.60;;;;;;5040452;28;20221;-63
2022/04/05 16:38:06;;;;;;;9.93;2.70;;;8.80;79.70;;;;;;5034575;28;20287;-64
2022/04/05 16:40:56;;;;;;;14.87;2.60;;;8.80;79.30;;;;;;5031257;28;20229;-62
2022/04/05 16:43:45;;;;;;;16.17;3.37;;;8.70;81.00;;;;;;5053873;28;20216;-64
2022/04/05 16:46:37;;;;;;;12.10;2.63;;;8.80;81.60;;;;;;5052173;28;20231;-65
2022/04/05 16:49:26;;;;;;;10.60;2.27;;;8.70;81.00;;;;;;5033067;28;20312;-65
2022/04/05 16:52:15;;;;;;;18.53;2.70;;;8.70;82.70;;;;;;5053819;28;20210;-63
2022/04/05 16:55:06;;;;;;;10.93;2.40;;;8.60;81.70;;;;;;5053539;28;20230;-64
2022/04/05 16:57:56;;;;;;;14.00;2.50;;;8.60;82.30;;;;;;5031464;28;20226;-63
2022/04/05 17:00:45;;;;;;;15.20;3.27;;;8.50;80.90;;;;;;5032396;28;20316;-62
2022/04/05 17:03:34;;;;;;;13.60;3.00;;;8.60;83.80;;;;;;5039615;28;20221;-63
2022/04/05 17:06:23;;;;;;;15.23;2.57;;;8.60;83.00;;;;;;5050809;28;20598;-62
2022/04/05 17:09:11;;;;;;;17.43;2.73;;;8.50;82.90;;;;;;5031817;28;20245;-65
2022/04/05 17:12:00;;;;;;;12.17;2.87;;;8.40;82.50;;;;;;5014954;28;20245;-63
2022/04/05 17:14:51;;;;;;;10.00;2.70;;;8.40;87.50;;;;;;5038422;28;20237;-63
2022/04/05 17:17:43;;;;;;;12.43;2.60;;;8.40;84.10;;;;;;5036328;28;20973;-63
2022/04/05 17:20:32;;;;;;;18.57;3.67;;;8.40;83.70;;;;;;5045693;28;20218;-62
2022/04/05 17:23:21;;;;;;;15.77;2.83;;;8.40;85.00;;;;;;5030713;28;20235;-63
2022/04/05 17:26:30;;;;;;;13.53;3.30;;;8.30;83.20;;;;;;5052849;28;20221;-63
2022/04/05 17:29:19;;;;;;;9.23;2.80;;;8.30;84.50;;;;;;5046919;28;20232;-63
2022/04/05 17:32:10;;;;;;;16.43;2.90;;;8.30;83.60;;;;;;5058634;28;20225;-63
2022/04/05 17:35:00;;;;;;;16.83;3.53;;;8.30;83.90;;;;;;5044099;28;20658;-64
2022/04/05 17:37:50;;;;;;;15.77;4.07;;;8.20;85.10;;;;;;5044417;28;20252;-65
2022/04/05 17:40:40;;;;;;;13.63;3.13;;;8.20;84.40;;;;;;5035061;28;20229;-64
2022/04/05 17:43:29;;;;;;;16.53;3.30;;;8.10;84.30;;;;;;5036909;28;20278;-64
2022/04/05 17:46:17;;;;;;;11.43;3.27;;;8.20;88.50;;;;;;5034529;28;20217;-63
2022/04/05 17:49:08;;;;;;;17.03;3.73;;;8.20;86.00;;;;;;5031540;28;20434;-63
2022/04/05 17:51:57;;;;;;;12.43;3.13;;;8.20;85.60;;;;;;5044945;28;21058;-63
2022/04/05 17:54:45;;;;;;;12.70;3.97;;;8.20;85.70;;;;;;5041621;28;20243;-63
2022/04/05 17:57:34;;;;;;;16.80;3.97;;;8.20;86.60;;;;;;5034454;28;20225;-63
2022/04/05 18:00:23;;;;;;;12.57;3.40;;;8.10;87.90;;;;;;5039354;28;21227;-62
2022/04/05 18:03:12;;;;;;;19.83;3.50;;;8.20;86.90;;;;;;5042868;28;20700;-63
2022/04/05 18:06:02;;;;;;;10.00;3.20;;;8.20;86.90;;;;;;5074470;28;20237;-64
2022/04/05 18:08:53;;;;;;;17.67;4.00;;;8.10;85.80;;;;;;5046926;28;20239;-64
2022/04/05 18:11:42;;;;;;;18.10;3.77;;;8.20;86.10;;;;;;5038988;28;20308;-64
2022/04/05 18:14:32;;;;;;;13.57;3.77;;;8.10;89.10;;;;;;5043036;28;20251;-64
2022/04/05 18:17:22;;;;;;;17.87;4.30;;;8.10;90.50;;;;;;5032715;28;20305;-63
2022/04/05 18:20:12;;;;;;;12.10;3.90;;;8.00;89.10;;;;;;5041944;28;20337;-63
2022/04/05 18:23:02;;;;;;;15.07;3.80;;;8.00;90.70;;;;;;5056235;28;20370;-62
2022/04/05 18:25:50;;;;;;;15.33;3.67;;;7.90;90.90;;;;;;5041664;28;20225;-61
2022/04/05 18:28:40;;;;;;;14.00;4.03;;;7.80;90.50;;;;;;5034494;28;20214;-62